Amery, Wisconsin
Current Conditions -  °F | °C
As of 11:55 PM on Thursday 27 Nov 2014 (Local Time) from KRNH Reporting Station
Overcast Overcast  
Wind Chill: -19°   Ceiling: 3400
Heat Index: -13°   Visibility: 10mi
Dew Point: -17°   Wind: 7mph
Humidity: 70%   Direction: 160°SSE
Pressure: 30.28"   Gusts: NA
Location:  45.31°N, 92.36°W
Report Text: KRNH 280555Z AUTO 16006KT 10SM OVC034 M13/M17 A3028 RMK AO2 T11261171 11126 21142 411201193
Loading
Personal Weather Stations






























Interactive Weather Map New forecast layout! Learn more

10-Day Weather Forecast

Advertisements
Track Severe Weather on mobile